createdAt,value
2019-01-21T00:00:48.259Z,22.10
2019-01-21T00:03:18.533Z,15.95
2019-01-21T00:05:48.758Z,14.95
2019-01-21T00:08:18.951Z,14.25
2019-01-21T00:10:49.101Z,19.75
2019-01-21T00:13:19.249Z,15.10
2019-01-21T00:15:49.460Z,15.45
2019-01-21T00:18:20.020Z,13.95
2019-01-21T00:20:50.157Z,15.98
2019-01-21T00:23:20.307Z,10.10
2019-01-21T00:25:50.474Z,16.05
2019-01-21T00:28:20.621Z,16.65
2019-01-21T00:30:50.765Z,13.85
2019-01-21T00:33:20.927Z,15.63
2019-01-21T00:35:51.110Z,12.37
2019-01-21T00:38:21.611Z,14.60
2019-01-21T00:40:51.757Z,11.85
2019-01-21T00:43:21.878Z,13.50
2019-01-21T00:45:52.086Z,13.45
2019-01-21T00:48:22.245Z,14.80
2019-01-21T00:50:52.410Z,19.23
2019-01-21T00:53:22.573Z,14.43
2019-01-21T00:55:52.823Z,19.32
2019-01-21T00:58:22.993Z,13.72
2019-01-21T01:00:53.151Z,15.23
2019-01-21T01:03:23.568Z,18.57
2019-01-21T01:05:53.739Z,14.50
2019-01-21T01:08:23.882Z,13.60
2019-01-21T01:10:54.046Z,12.58
2019-01-21T01:13:24.206Z,20.08
2019-01-21T01:15:54.401Z,19.02
2019-01-21T01:18:24.621Z,12.68
2019-01-21T01:20:54.796Z,14.18
2019-01-21T01:23:24.968Z,14.78
2019-01-21T01:25:55.125Z,23.10
2019-01-21T01:28:25.279Z,11.95
2019-01-21T01:30:55.653Z,13.55
2019-01-21T01:33:25.805Z,15.23
2019-01-21T01:35:55.964Z,13.00
2019-01-21T01:38:26.137Z,10.85
2019-01-21T01:40:56.320Z,16.70
2019-01-21T01:43:26.499Z,11.70
2019-01-21T01:45:56.636Z,16.67
2019-01-21T01:48:26.802Z,13.53
2019-01-21T01:50:56.941Z,12.98
2019-01-21T01:53:27.362Z,13.83
2019-01-21T01:55:57.513Z,12.95
2019-01-21T01:58:27.660Z,14.58
2019-01-21T02:04:46.258Z,13.40
2019-01-21T02:07:16.408Z,12.53
2019-01-21T02:09:46.608Z,15.68
2019-01-21T02:12:16.754Z,15.45
2019-01-21T02:14:46.921Z,10.48
2019-01-21T02:17:17.242Z,13.00
2019-01-21T02:19:48.700Z,15.05
2019-01-21T02:22:20.178Z,19.17
2019-01-21T02:24:52.729Z,14.53
2019-01-21T02:27:26.886Z,11.08
2019-01-21T02:30:10.293Z,13.03
2019-01-21T02:33:02.699Z,14.00
2019-01-21T02:35:38.443Z,13.28
2019-01-21T02:38:22.082Z,16.27
2019-01-21T02:41:02.452Z,15.60
2019-01-21T02:43:52.373Z,15.48
2019-01-21T02:46:50.212Z,11.78
2019-01-21T02:49:36.816Z,14.45
2019-01-21T02:52:17.643Z,13.83
2019-01-21T02:55:37.739Z,18.05
2019-01-21T02:58:15.449Z,14.30
2019-01-21T03:01:13.747Z,14.80
2019-01-21T03:04:00.696Z,17.75
2019-01-21T03:06:44.309Z,16.73
2019-01-21T03:09:34.165Z,16.80
2019-01-21T03:12:39.019Z,17.30
2019-01-21T03:15:22.662Z,13.20
2019-01-21T03:18:26.551Z,9.73
2019-01-21T03:21:13.113Z,16.27
2019-01-21T03:24:16.026Z,15.50
2019-01-21T03:27:10.072Z,14.93
2019-01-21T03:30:08.416Z,11.28
2019-01-21T03:33:07.106Z,10.75
2019-01-21T03:36:06.221Z,14.35
2019-01-21T03:38:56.097Z,11.48
2019-01-21T03:41:51.123Z,10.78
2019-01-21T03:44:54.035Z,13.18
2019-01-21T03:47:31.725Z,19.87
2019-01-21T03:50:25.798Z,9.45
2019-01-21T03:53:08.626Z,9.45
2019-01-21T03:55:38.887Z,20.85
2019-01-21T03:58:36.306Z,12.18
2019-01-21T04:01:13.967Z,9.93
2019-01-21T04:04:10.919Z,13.88
2019-01-21T04:06:48.459Z,11.95
2019-01-21T04:09:39.561Z,15.53
2019-01-21T04:12:14.416Z,10.90
2019-01-21T04:15:08.699Z,14.40
2019-01-21T04:18:11.689Z,16.40
2019-01-21T04:21:04.055Z,10.88
2019-01-21T04:23:53.702Z,12.20
2019-01-21T04:27:04.303Z,14.98
2019-01-21T04:30:17.802Z,13.13
2019-01-21T04:32:52.662Z,14.90
2019-01-21T04:35:41.469Z,21.95
2019-01-21T04:38:44.702Z,19.40
2019-01-21T04:41:39.023Z,13.03
2019-01-21T04:44:49.535Z,12.00
2019-01-21T04:47:29.668Z,13.78
2019-01-21T04:50:10.268Z,13.40
2019-01-21T04:52:54.232Z,17.27
2019-01-21T04:55:34.393Z,14.10
2019-01-21T04:58:20.956Z,14.23
2019-01-21T05:01:20.107Z,16.17
2019-01-21T05:04:28.167Z,18.07
2019-01-21T05:07:29.804Z,16.35
2019-01-21T05:10:19.044Z,12.05
2019-01-21T05:13:17.279Z,16.05
2019-01-21T05:16:19.417Z,23.15
2019-01-21T05:19:23.120Z,21.93
2019-01-21T05:22:06.547Z,17.23
2019-01-21T05:25:19.308Z,17.90
2019-01-21T05:28:12.604Z,13.03
2019-01-21T05:31:02.308Z,23.57
2019-01-21T05:34:05.541Z,13.15
2019-01-21T05:36:55.529Z,12.60
2019-01-21T05:39:54.676Z,12.82
2019-01-21T05:42:56.960Z,11.40
2019-01-21T05:45:52.760Z,17.27
2019-01-21T05:49:05.874Z,13.22
2019-01-21T05:52:19.679Z,14.90
2019-01-21T05:55:44.734Z,15.83
2019-01-21T05:58:27.977Z,9.40
2019-01-21T06:01:11.826Z,12.73
2019-01-21T06:03:58.220Z,13.88
2019-01-21T06:06:57.045Z,28.00
2019-01-21T06:09:36.998Z,12.68
2019-01-21T06:12:32.650Z,20.10
2019-01-21T06:15:19.179Z,16.42
2019-01-21T06:18:05.096Z,10.58
2019-01-21T06:20:46.012Z,15.50
2019-01-21T06:23:29.503Z,8.60
2019-01-21T06:26:31.438Z,13.93
2019-01-21T06:29:30.787Z,12.63
2019-01-21T06:32:17.389Z,18.90
2019-01-21T06:35:00.756Z,12.40
2019-01-21T06:37:47.255Z,12.65
2019-01-21T06:40:55.657Z,11.70
2019-01-21T06:43:42.042Z,16.95
2019-01-21T06:46:26.081Z,13.20
2019-01-21T06:49:12.292Z,11.05
2019-01-21T06:51:56.389Z,16.80
2019-01-21T06:54:40.288Z,11.22
2019-01-21T06:57:18.286Z,14.20
2019-01-21T07:00:08.167Z,13.83
2019-01-21T07:02:48.786Z,18.15
2019-01-21T07:06:01.246Z,11.65
2019-01-21T07:09:13.822Z,16.80
2019-01-21T07:11:54.212Z,12.78
2019-01-21T07:17:19.162Z,14.28
2019-01-21T07:20:11.885Z,11.65
2019-01-21T07:22:58.890Z,19.15
2019-01-21T07:25:42.226Z,18.30
2019-01-21T07:28:17.110Z,11.83
2019-01-21T07:31:09.534Z,16.40
2019-01-21T07:33:56.599Z,24.37
2019-01-21T07:36:34.180Z,15.85
2019-01-21T07:39:33.898Z,11.88
2019-01-21T07:42:33.118Z,19.82
2019-01-21T07:45:16.716Z,15.98
2019-01-21T07:48:15.907Z,16.62
2019-01-21T07:51:40.696Z,14.07
2019-01-21T07:54:15.612Z,13.88
2019-01-21T07:56:59.430Z,16.50
2019-01-21T08:00:07.106Z,19.15
2019-01-21T08:03:12.022Z,10.78
2019-01-21T08:05:55.908Z,12.40
2019-01-21T08:08:56.374Z,24.55
2019-01-21T08:11:33.910Z,17.55
2019-01-21T08:14:14.829Z,17.98
2019-01-21T08:16:58.947Z,22.37
2019-01-21T08:19:48.752Z,19.10
2019-01-21T08:22:53.939Z,17.40
2019-01-21T08:25:47.199Z,21.90
2019-01-21T08:28:37.009Z,18.73
2019-01-21T08:31:14.791Z,23.65
2019-01-21T08:34:20.973Z,21.37
2019-01-21T08:37:17.837Z,24.72
2019-01-21T08:39:52.726Z,19.60
2019-01-21T08:42:47.906Z,16.52
2019-01-21T08:45:51.614Z,19.65
2019-01-21T08:48:32.412Z,19.55
2019-01-21T08:51:24.812Z,25.70
2019-01-21T08:54:19.876Z,23.38
2019-01-21T08:56:57.898Z,21.00
2019-01-21T08:59:38.825Z,22.42
2019-01-21T09:02:37.248Z,23.63
2019-01-21T09:05:36.456Z,24.57
2019-01-21T09:08:25.986Z,24.30
2019-01-21T09:11:03.662Z,19.67
2019-01-21T09:13:55.791Z,21.68
2019-01-21T09:16:45.577Z,20.95
2019-01-21T09:19:29.293Z,24.90
2019-01-21T09:22:10.333Z,21.93
2019-01-21T09:25:23.280Z,23.37
2019-01-21T09:28:24.975Z,23.10
2019-01-21T09:31:08.606Z,23.73
2019-01-21T09:34:13.865Z,22.15
2019-01-21T09:36:51.243Z,22.20
2019-01-21T09:39:58.468Z,24.02
2019-01-21T09:42:33.558Z,20.83
2019-01-21T09:45:19.981Z,21.40
2019-01-21T09:47:48.546Z,20.77
2019-01-21T09:50:19.665Z,19.63
2019-01-21T09:52:50.165Z,22.07
2019-01-21T09:55:22.894Z,24.50
2019-01-21T09:57:57.797Z,17.90
2019-01-21T10:00:27.995Z,23.70
2019-01-21T10:02:59.715Z,21.60
2019-01-21T10:05:32.536Z,16.97
2019-01-21T10:08:16.379Z,18.27
2019-01-21T10:11:09.540Z,20.13
2019-01-21T10:14:02.747Z,19.37
2019-01-21T10:16:40.283Z,21.10
2019-01-21T10:19:20.938Z,20.20
2019-01-21T10:21:58.532Z,23.13
2019-01-21T10:25:10.237Z,20.43
2019-01-21T10:27:53.909Z,21.13
2019-01-21T10:30:45.171Z,17.17
2019-01-21T10:33:46.638Z,20.47
2019-01-21T10:36:42.345Z,18.67
2019-01-21T10:39:28.897Z,20.30
2019-01-21T10:42:27.550Z,19.07
2019-01-21T10:45:30.988Z,19.60
2019-01-21T10:48:33.216Z,19.13
2019-01-21T10:51:26.156Z,19.27
2019-01-21T10:54:19.242Z,18.83
2019-01-21T10:56:56.939Z,19.53
2019-01-21T10:59:49.034Z,18.63
2019-01-21T11:02:43.183Z,16.83
2019-01-21T11:05:33.132Z,18.30
2019-01-21T11:08:32.075Z,20.07
2019-01-21T11:11:24.747Z,16.80
2019-01-21T11:14:12.514Z,16.83
2019-01-21T11:17:02.051Z,17.93
2019-01-21T11:19:54.626Z,18.83
2019-01-21T11:22:29.662Z,17.37
2019-01-21T11:25:34.580Z,17.07
2019-01-21T11:28:14.678Z,17.80
2019-01-21T11:30:55.289Z,17.80
2019-01-21T11:33:51.099Z,20.07
2019-01-21T11:36:50.053Z,18.33
2019-01-21T11:39:46.087Z,19.70
2019-01-21T11:42:40.333Z,21.00
2019-01-21T11:45:29.651Z,18.47
2019-01-21T11:48:04.477Z,20.70
2019-01-21T11:50:48.306Z,18.70
2019-01-21T11:53:50.049Z,19.30
2019-01-21T11:56:30.391Z,19.07
2019-01-21T11:59:08.120Z,18.90
2019-01-21T12:02:05.381Z,15.40
2019-01-21T12:04:46.265Z,18.50
2019-01-21T12:07:42.126Z,19.10
2019-01-21T12:10:36.605Z,19.77
2019-01-21T12:13:29.593Z,20.43
2019-01-21T12:16:45.384Z,21.20
2019-01-21T12:19:50.638Z,22.00
2019-01-21T12:22:40.646Z,20.20
2019-01-21T12:25:21.037Z,17.73
2019-01-21T12:28:01.246Z,20.63
2019-01-21T12:30:41.294Z,17.30
2019-01-21T12:33:34.136Z,17.40
2019-01-21T12:36:09.011Z,19.03
2019-01-21T12:39:10.787Z,15.20
2019-01-21T12:42:11.236Z,17.33
2019-01-21T12:45:03.882Z,17.97
2019-01-21T12:47:56.590Z,20.50
2019-01-21T12:51:00.912Z,16.73
2019-01-21T12:54:01.982Z,19.80
2019-01-21T12:56:51.017Z,15.20
2019-01-21T12:59:49.841Z,19.90
2019-01-21T13:02:35.952Z,15.70
2019-01-21T13:05:33.073Z,18.57
2019-01-21T13:08:16.826Z,18.10
2019-01-21T13:11:00.423Z,18.33
2019-01-21T13:13:43.763Z,21.23
2019-01-21T13:16:35.246Z,20.03
2019-01-21T13:19:39.916Z,17.40
2019-01-21T13:22:34.432Z,21.20
2019-01-21T13:25:33.461Z,18.70
2019-01-21T13:28:27.642Z,20.23
2019-01-21T13:31:25.986Z,18.20
2019-01-21T13:34:28.223Z,17.30
2019-01-21T13:37:17.276Z,18.23
2019-01-21T13:40:03.331Z,17.23
2019-01-21T13:42:41.165Z,16.00
2019-01-21T13:45:19.007Z,17.80
2019-01-21T13:47:59.661Z,20.17
2019-01-21T13:50:40.457Z,15.33
2019-01-21T13:53:29.926Z,17.30
2019-01-21T13:56:19.774Z,18.20
2019-01-21T13:59:12.776Z,18.33
2019-01-21T14:02:02.795Z,22.63
2019-01-21T14:04:55.791Z,23.30
2019-01-21T14:07:48.918Z,16.40
2019-01-21T14:10:44.899Z,20.40
2019-01-21T14:13:28.593Z,19.83
2019-01-21T14:16:05.913Z,17.60
2019-01-21T14:18:52.528Z,20.27
2019-01-21T14:21:36.341Z,17.43
2019-01-21T14:24:45.627Z,18.13
2019-01-21T14:27:37.058Z,17.77
2019-01-21T14:30:32.937Z,21.03
2019-01-21T14:33:10.761Z,20.03
2019-01-21T14:36:03.439Z,17.03
2019-01-21T14:38:50.390Z,21.53
2019-01-21T14:41:34.300Z,21.50
2019-01-21T14:44:23.938Z,17.70
2019-01-21T14:47:19.553Z,16.70
2019-01-21T14:49:56.965Z,18.70
2019-01-21T14:52:49.659Z,17.33
2019-01-21T14:55:36.521Z,22.03
2019-01-21T14:58:25.919Z,16.33
2019-01-21T15:01:12.910Z,23.70
2019-01-21T15:04:11.770Z,25.37
2019-01-21T15:06:58.545Z,22.20
2019-01-21T15:09:48.738Z,19.67
2019-01-21T15:12:41.794Z,22.35
2019-01-21T15:15:49.833Z,19.37
2019-01-21T15:18:33.258Z,17.57
2019-01-21T15:21:27.619Z,23.83
2019-01-21T15:24:38.998Z,19.60
2019-01-21T15:28:00.193Z,23.15
2019-01-21T15:31:08.305Z,19.48
2019-01-21T15:34:12.885Z,20.23
2019-01-21T15:37:11.577Z,22.60
2019-01-21T15:40:00.980Z,28.15
2019-01-21T15:42:41.753Z,18.35
2019-01-21T15:45:54.052Z,23.30
2019-01-21T15:48:31.465Z,24.23
2019-01-21T15:51:31.267Z,23.35
2019-01-21T15:54:25.862Z,27.00
2019-01-21T15:57:29.441Z,21.00
2019-01-21T16:00:37.848Z,23.67
2019-01-21T16:03:50.694Z,25.43
2019-01-21T16:06:52.666Z,20.95
2019-01-21T16:09:59.205Z,21.40
2019-01-21T16:12:43.013Z,21.75
2019-01-21T16:15:26.690Z,21.48
2019-01-21T16:18:22.651Z,24.98
2019-01-21T16:21:20.162Z,27.15
2019-01-21T16:24:22.947Z,21.17
2019-01-21T16:27:00.253Z,24.27
2019-01-21T16:29:40.930Z,20.68
2019-01-21T16:32:11.306Z,18.40
2019-01-21T16:35:03.019Z,29.15
2019-01-21T16:37:37.876Z,25.65
2019-01-21T16:40:24.965Z,30.00
2019-01-21T16:42:55.284Z,29.27
2019-01-21T16:45:25.487Z,28.90
2019-01-21T16:47:55.694Z,27.25
2019-01-21T16:50:25.825Z,23.05
2019-01-21T16:52:56.026Z,25.60
2019-01-21T16:55:26.173Z,28.35
2019-01-21T16:57:56.317Z,22.80
2019-01-21T17:00:26.536Z,28.70
2019-01-21T17:02:56.710Z,22.35
2019-01-21T17:05:26.848Z,26.07
2019-01-21T17:07:57.186Z,17.20
2019-01-21T17:10:27.359Z,23.50
2019-01-21T17:12:57.844Z,26.40
2019-01-21T17:15:28.034Z,23.70
2019-01-21T17:17:58.231Z,26.23
2019-01-21T17:20:28.382Z,25.48
2019-01-21T17:22:58.580Z,25.92
2019-01-21T17:25:28.851Z,21.45
2019-01-21T17:27:58.985Z,21.73
2019-01-21T17:30:29.248Z,28.62
2019-01-21T17:32:59.412Z,29.27
2019-01-21T17:35:29.613Z,25.75
2019-01-21T17:37:59.774Z,24.15
2019-01-21T17:40:32.881Z,21.35
2019-01-21T17:43:03.027Z,29.10
2019-01-21T17:45:33.258Z,20.55
2019-01-21T17:48:03.409Z,20.75
2019-01-21T17:50:33.600Z,24.00
2019-01-21T17:53:03.777Z,25.27
2019-01-21T17:55:33.924Z,18.85
2019-01-21T17:58:04.372Z,19.65
2019-01-21T18:00:34.540Z,29.42
2019-01-21T18:03:04.865Z,29.02
2019-01-21T18:05:35.046Z,22.67
2019-01-21T18:08:05.473Z,22.70
2019-01-21T18:10:35.650Z,22.85
2019-01-21T18:13:05.827Z,34.00
2019-01-21T18:15:36.015Z,25.20
2019-01-21T18:18:06.171Z,27.27
2019-01-21T18:20:36.481Z,27.35
2019-01-21T18:23:06.841Z,19.92
2019-01-21T18:25:37.010Z,27.32
2019-01-21T18:28:07.188Z,25.85
2019-01-21T18:30:37.354Z,24.30
2019-01-21T18:33:07.525Z,22.80
2019-01-21T18:35:37.698Z,23.47
2019-01-21T18:38:08.193Z,24.80
2019-01-21T18:40:38.429Z,25.45
2019-01-21T18:43:08.566Z,27.85
2019-01-21T18:45:39.079Z,24.40
2019-01-21T18:48:09.240Z,26.45
2019-01-21T18:50:39.416Z,31.05
2019-01-21T18:53:09.624Z,27.77
2019-01-21T18:55:39.772Z,27.42
2019-01-21T18:58:10.398Z,28.27
2019-01-21T19:00:40.525Z,29.80
2019-01-21T19:03:10.721Z,29.65
2019-01-21T19:05:40.890Z,26.00
2019-01-21T19:08:11.055Z,23.02
2019-01-21T19:10:41.216Z,26.37
2019-01-21T19:13:11.370Z,21.48
2019-01-21T19:15:41.541Z,21.15
2019-01-21T19:18:11.698Z,28.57
2019-01-21T19:20:41.911Z,22.52
2019-01-21T19:23:12.050Z,26.73
2019-01-21T19:25:42.221Z,26.17
2019-01-21T19:28:12.410Z,20.15
2019-01-21T19:30:42.580Z,26.55
2019-01-21T19:33:12.788Z,25.57
2019-01-21T19:35:43.070Z,21.57
2019-01-21T19:38:13.242Z,21.45
2019-01-21T19:40:43.467Z,21.50
2019-01-21T19:43:13.668Z,21.45
2019-01-21T19:45:43.837Z,55.52
2019-01-21T19:48:14.033Z,48.55
2019-01-21T19:50:44.223Z,24.20
2019-01-21T19:53:14.403Z,27.25
2019-01-21T19:55:44.691Z,30.23
2019-01-21T19:58:14.902Z,35.43
2019-01-21T20:00:45.053Z,28.38
2019-01-21T20:03:15.234Z,20.15
2019-01-21T20:05:45.443Z,29.85
2019-01-21T20:08:15.617Z,33.60
2019-01-21T20:10:45.796Z,30.23
2019-01-21T20:13:15.976Z,31.00
2019-01-21T20:15:46.176Z,23.70
2019-01-21T20:18:16.371Z,37.75
2019-01-21T20:20:46.513Z,25.12
2019-01-21T20:23:16.700Z,22.80
2019-01-21T20:25:46.861Z,27.75
2019-01-21T20:28:17.035Z,30.88
2019-01-21T20:30:47.175Z,24.20
2019-01-21T20:33:17.422Z,24.72
2019-01-21T20:35:47.616Z,24.77
2019-01-21T20:38:17.882Z,29.32
2019-01-21T20:40:48.038Z,22.77
2019-01-21T20:43:18.230Z,30.30
2019-01-21T20:45:48.380Z,30.30
2019-01-21T20:48:18.546Z,29.65
2019-01-21T20:50:48.758Z,29.55
2019-01-21T20:53:18.946Z,30.27
2019-01-21T20:55:49.169Z,24.35
2019-01-21T20:58:19.406Z,25.37
2019-01-21T21:00:49.610Z,25.23
2019-01-21T21:03:19.853Z,23.22
2019-01-21T21:05:50.020Z,24.18
2019-01-21T21:08:20.194Z,26.62
2019-01-21T21:10:50.347Z,27.48
2019-01-21T21:13:20.527Z,32.45
2019-01-21T21:15:50.754Z,31.05
2019-01-21T21:18:20.958Z,22.87
2019-01-21T21:20:51.098Z,22.40
2019-01-21T21:23:21.323Z,25.95
2019-01-21T21:25:51.569Z,24.63
2019-01-21T21:28:21.858Z,35.55
2019-01-21T21:30:52.279Z,22.82
2019-01-21T21:33:22.424Z,25.68
2019-01-21T21:35:52.585Z,20.75
2019-01-21T21:38:22.737Z,25.68
2019-01-21T21:40:52.906Z,39.67
2019-01-21T21:43:23.380Z,23.83
2019-01-21T21:45:53.548Z,34.03
2019-01-21T21:48:23.706Z,34.88
2019-01-21T21:50:53.855Z,28.85
2019-01-21T21:53:24.081Z,34.98
2019-01-21T21:55:54.205Z,26.42
2019-01-21T21:58:24.400Z,26.33
2019-01-21T22:00:54.548Z,24.67
2019-01-21T22:03:24.688Z,27.98
2019-01-21T22:05:54.885Z,29.98
2019-01-21T22:08:25.075Z,33.38
2019-01-21T22:10:55.227Z,27.62
2019-01-21T22:13:25.405Z,26.37
2019-01-21T22:15:55.560Z,35.80
2019-01-21T22:18:25.725Z,30.75
2019-01-21T22:20:55.874Z,28.47
2019-01-21T22:23:26.035Z,27.35
2019-01-21T22:25:56.251Z,30.05
2019-01-21T22:28:26.410Z,31.15
2019-01-21T22:30:56.568Z,23.42
2019-01-21T22:33:26.763Z,28.45
2019-01-21T22:35:56.911Z,31.93
2019-01-21T22:38:27.056Z,29.67
2019-01-21T22:40:57.238Z,35.58
2019-01-21T22:43:27.652Z,29.52
2019-01-21T22:45:57.835Z,31.05
2019-01-21T22:48:28.004Z,33.00
2019-01-21T22:50:58.156Z,27.75
2019-01-21T22:53:28.357Z,28.47
2019-01-21T22:55:58.499Z,25.25
2019-01-21T22:58:28.655Z,31.27
2019-01-21T23:01:03.542Z,21.55
2019-01-21T23:03:33.710Z,25.48
2019-01-21T23:06:03.862Z,29.32
2019-01-21T23:08:34.012Z,26.25
2019-01-21T23:11:04.249Z,22.73
2019-01-21T23:13:34.416Z,25.77
2019-01-21T23:16:04.735Z,33.15
2019-01-21T23:18:35.261Z,30.02
2019-01-21T23:21:05.435Z,22.98
2019-01-21T23:23:35.591Z,25.97
2019-01-21T23:26:05.756Z,22.95
2019-01-21T23:28:35.906Z,27.45
2019-01-21T23:31:06.337Z,23.73
2019-01-21T23:33:36.510Z,26.52
2019-01-21T23:36:06.676Z,36.93
2019-01-21T23:38:36.828Z,26.15
2019-01-21T23:41:06.990Z,31.00
2019-01-21T23:43:37.448Z,24.60
2019-01-21T23:46:07.625Z,21.95
2019-01-21T23:48:37.774Z,21.80
2019-01-21T23:51:08.571Z,23.67
2019-01-21T23:53:38.695Z,21.45
2019-01-21T23:56:09.033Z,20.48
2019-01-21T23:58:39.193Z,23.12
